createdAt,value
2017-07-30T00:01:20.722Z,59.44
2017-07-30T00:03:52.704Z,59.81
2017-07-30T00:06:25.066Z,60.12
2017-07-30T00:08:56.426Z,60.20
2017-07-30T00:11:29.185Z,60.50
2017-07-30T00:14:03.829Z,60.92
2017-07-30T00:16:36.063Z,60.87
2017-07-30T00:19:09.482Z,61.06
2017-07-30T00:21:42.449Z,61.26
2017-07-30T00:24:14.209Z,61.35
2017-07-30T00:26:46.296Z,61.50
2017-07-30T00:29:18.141Z,61.41
2017-07-30T00:31:52.132Z,62.21
2017-07-30T00:34:23.561Z,62.84
2017-07-30T00:36:55.266Z,63.32
2017-07-30T00:39:26.566Z,63.26
2017-07-30T00:41:57.888Z,63.62
2017-07-30T00:44:29.521Z,63.50
2017-07-30T00:47:00.818Z,63.51
2017-07-30T00:49:32.152Z,63.24
2017-07-30T00:52:04.851Z,63.72
2017-07-30T00:54:36.265Z,63.98
2017-07-30T00:57:07.782Z,63.96
2017-07-30T00:59:39.203Z,63.93
2017-07-30T01:02:10.719Z,64.01
2017-07-30T01:04:42.373Z,63.90
2017-07-30T01:07:13.736Z,64.20
2017-07-30T01:09:45.282Z,64.10
2017-07-30T01:12:16.644Z,64.23
2017-07-30T01:14:48.374Z,64.21
2017-07-30T01:17:19.755Z,63.98
2017-07-30T01:19:51.263Z,63.89
2017-07-30T01:22:22.972Z,64.03
2017-07-30T01:24:54.392Z,63.67
2017-07-30T01:27:25.706Z,63.71
2017-07-30T01:29:57.323Z,63.88
2017-07-30T01:32:28.707Z,64.08
2017-07-30T01:35:00.297Z,64.04
2017-07-30T01:37:31.650Z,64.08
2017-07-30T01:40:04.637Z,64.60
2017-07-30T01:42:37.240Z,64.55
2017-07-30T01:45:08.612Z,64.62
2017-07-30T01:47:39.954Z,64.90
2017-07-30T01:50:11.596Z,64.99
2017-07-30T01:52:42.922Z,64.93
2017-07-30T01:55:14.269Z,64.95
2017-07-30T01:57:45.904Z,65.00
2017-07-30T02:00:17.326Z,65.09
2017-07-30T02:02:48.687Z,65.26
2017-07-30T02:05:20.301Z,65.46
2017-07-30T02:07:51.615Z,65.33
2017-07-30T02:10:23.193Z,65.27
2017-07-30T02:12:54.540Z,65.33
2017-07-30T02:15:25.843Z,65.46
2017-07-30T02:17:57.157Z,65.40
2017-07-30T02:20:28.491Z,65.55
2017-07-30T02:23:00.295Z,65.66
2017-07-30T02:25:31.657Z,65.72
2017-07-30T02:28:03.655Z,65.74
2017-07-30T02:30:34.946Z,65.80
2017-07-30T02:33:06.444Z,65.68
2017-07-30T02:35:38.067Z,65.67
2017-07-30T02:38:09.391Z,65.63
2017-07-30T02:40:40.682Z,65.59
2017-07-30T02:43:12.285Z,65.53
2017-07-30T02:45:43.581Z,65.48
2017-07-30T02:48:14.927Z,65.29
2017-07-30T02:50:47.549Z,65.25
2017-07-30T02:53:18.832Z,65.23
2017-07-30T02:55:50.131Z,65.33
2017-07-30T02:58:21.798Z,65.12
2017-07-30T03:00:53.105Z,65.01
2017-07-30T03:03:24.410Z,64.98
2017-07-30T03:05:55.984Z,64.81
2017-07-30T03:08:27.316Z,64.80
2017-07-30T03:10:58.699Z,64.64
2017-07-30T03:13:30.062Z,64.65
2017-07-30T03:16:01.421Z,64.70
2017-07-30T03:18:32.752Z,64.99
2017-07-30T03:21:04.088Z,64.76
2017-07-30T03:23:35.699Z,64.78
2017-07-30T03:26:07.006Z,64.86
2017-07-30T03:28:38.346Z,65.11
2017-07-30T03:31:09.678Z,65.18
2017-07-30T03:33:41.305Z,65.06
2017-07-30T03:36:12.624Z,65.06
2017-07-30T03:38:43.973Z,65.18
2017-07-30T03:41:15.593Z,65.13
2017-07-30T03:43:46.911Z,64.80
2017-07-30T03:46:18.226Z,64.76
2017-07-30T03:48:49.660Z,64.60
2017-07-30T03:51:20.979Z,64.26
2017-07-30T03:53:55.124Z,64.20
2017-07-30T03:56:26.455Z,63.94
2017-07-30T03:58:57.764Z,63.60
2017-07-30T04:01:30.396Z,63.63
2017-07-30T04:04:01.709Z,63.45
2017-07-30T04:06:33.643Z,63.46
2017-07-30T04:09:05.233Z,63.47
2017-07-30T04:11:36.517Z,63.61
2017-07-30T04:14:08.133Z,63.59
2017-07-30T04:16:39.520Z,63.60
2017-07-30T04:19:11.031Z,63.41
2017-07-30T04:21:42.676Z,63.42
2017-07-30T04:24:13.991Z,62.87
2017-07-30T04:26:45.391Z,63.07
2017-07-30T04:29:16.715Z,63.42
2017-07-30T04:31:48.011Z,63.67
2017-07-30T04:34:19.804Z,63.66
2017-07-30T04:36:51.080Z,63.57
2017-07-30T04:39:22.427Z,63.84
2017-07-30T04:41:54.130Z,64.05
2017-07-30T04:44:25.488Z,63.73
2017-07-30T04:46:56.876Z,63.72
2017-07-30T04:49:28.190Z,64.04
2017-07-30T04:51:59.638Z,63.98
2017-07-30T04:54:32.365Z,64.02
2017-07-30T04:57:03.830Z,64.14
2017-07-30T04:59:35.177Z,64.24
2017-07-30T05:02:09.352Z,64.24
2017-07-30T05:04:43.122Z,64.18
2017-07-30T05:07:16.065Z,64.10
2017-07-30T05:09:48.448Z,64.22
2017-07-30T05:12:22.738Z,64.26
2017-07-30T05:14:56.824Z,64.16
2017-07-30T05:17:29.356Z,63.58
2017-07-30T05:20:04.265Z,63.58
2017-07-30T05:22:37.976Z,63.26
2017-07-30T05:25:14.901Z,62.92
2017-07-30T05:30:41.371Z,62.19
2017-07-30T05:33:13.034Z,62.12
2017-07-30T05:35:44.416Z,61.75
2017-07-30T05:38:16.064Z,61.75
2017-07-30T05:40:47.386Z,61.37
2017-07-30T05:43:18.729Z,61.14
2017-07-30T05:45:50.087Z,60.80
2017-07-30T05:48:21.673Z,60.87
2017-07-30T05:50:53.044Z,60.40
2017-07-30T05:53:24.345Z,59.94
2017-07-30T05:55:56.069Z,59.63
2017-07-30T05:58:27.419Z,58.82
2017-07-30T06:00:59.147Z,58.82
2017-07-30T06:03:30.516Z,57.65
2017-07-30T06:06:02.758Z,57.12
2017-07-30T06:08:34.154Z,57.53
2017-07-30T06:11:05.489Z,56.92
2017-07-30T06:13:37.122Z,56.70
2017-07-30T06:16:11.256Z,56.77
2017-07-30T06:18:42.839Z,57.14
2017-07-30T06:21:19.757Z,57.07
2017-07-30T06:23:54.345Z,57.08
2017-07-30T06:26:27.984Z,57.34
2017-07-30T06:28:59.321Z,57.51
2017-07-30T06:31:30.955Z,57.19
2017-07-30T06:34:04.712Z,56.83
2017-07-30T06:36:37.842Z,56.67
2017-07-30T06:39:11.767Z,56.69
2017-07-30T06:41:44.545Z,56.98
2017-07-30T06:44:18.090Z,56.52
2017-07-30T06:46:51.217Z,56.70
2017-07-30T06:49:22.755Z,56.17
2017-07-30T06:51:55.936Z,56.88
2017-07-30T06:54:29.652Z,57.37
2017-07-30T06:57:03.613Z,57.48
2017-07-30T06:59:36.597Z,57.40
2017-07-30T07:02:09.217Z,57.24
2017-07-30T07:04:40.564Z,57.07
2017-07-30T07:07:13.389Z,57.11
2017-07-30T07:09:45.154Z,56.93
2017-07-30T07:12:17.466Z,56.94
2017-07-30T07:14:49.655Z,56.76
2017-07-30T07:17:24.379Z,56.56
2017-07-30T07:19:55.704Z,56.03
2017-07-30T07:22:29.900Z,55.69
2017-07-30T07:25:05.773Z,55.70
2017-07-30T07:27:37.082Z,55.24
2017-07-30T07:30:13.005Z,55.09
2017-07-30T07:32:45.333Z,53.73
2017-07-30T07:35:19.024Z,53.34
2017-07-30T07:37:50.632Z,52.96
2017-07-30T07:40:23.339Z,52.19
2017-07-30T07:42:54.969Z,52.05
2017-07-30T07:45:27.657Z,51.26
2017-07-30T07:47:59.641Z,50.37
2017-07-30T07:50:32.276Z,50.71
2017-07-30T07:56:16.140Z,50.82
2017-07-30T07:58:49.692Z,51.51
2017-07-30T08:01:23.905Z,51.07
2017-07-30T08:03:56.539Z,51.70
2017-07-30T08:06:31.565Z,51.17
2017-07-30T08:09:11.541Z,51.57
2017-07-30T08:11:44.752Z,51.40
2017-07-30T08:14:17.598Z,50.59
2017-07-30T08:16:51.574Z,50.40
2017-07-30T08:22:21.797Z,50.31
2017-07-30T08:24:56.670Z,50.21
2017-07-30T08:27:29.780Z,50.17
2017-07-30T08:30:03.838Z,49.95
2017-07-30T08:32:37.936Z,49.42
2017-07-30T08:35:16.926Z,50.15
2017-07-30T08:37:51.542Z,50.08
2017-07-30T08:40:26.558Z,49.33
2017-07-30T08:42:59.737Z,48.64
2017-07-30T08:45:34.323Z,47.87
2017-07-30T08:48:14.259Z,47.41
2017-07-30T08:50:46.574Z,46.96
2017-07-30T08:53:24.344Z,47.21
2017-07-30T08:56:18.160Z,46.71
2017-07-30T08:58:52.685Z,46.00
2017-07-30T09:01:29.690Z,45.75
2017-07-30T09:04:15.946Z,45.36
2017-07-30T09:06:50.934Z,45.41
2017-07-30T09:09:27.298Z,45.35
2017-07-30T09:12:05.601Z,44.89
2017-07-30T09:14:41.009Z,44.48
2017-07-30T09:17:20.915Z,43.72
2017-07-30T09:19:57.621Z,43.40
2017-07-30T09:22:36.411Z,42.59
2017-07-30T09:25:08.066Z,40.87
2017-07-30T09:27:39.542Z,40.84
2017-07-30T09:30:19.167Z,40.95
2017-07-30T09:32:58.410Z,40.65
2017-07-30T09:35:30.604Z,40.34
2017-07-30T09:40:38.385Z,40.45
2017-07-30T09:43:10.092Z,40.73
2017-07-30T09:45:41.512Z,40.92
2017-07-30T09:48:14.744Z,40.56
2017-07-30T09:50:46.301Z,40.45
2017-07-30T09:55:41.423Z,40.68
2017-07-30T09:58:13.680Z,40.14
2017-07-30T10:00:45.795Z,40.70
2017-07-30T10:03:17.515Z,40.08
2017-07-30T10:05:48.880Z,40.32
2017-07-30T10:08:21.452Z,40.62
2017-07-30T10:10:53.181Z,40.57
2017-07-30T10:13:24.595Z,39.72
2017-07-30T10:15:56.015Z,40.06
2017-07-30T10:18:27.752Z,39.26
2017-07-30T10:21:05.301Z,39.42
2017-07-30T10:23:40.895Z,40.24
2017-07-30T10:26:25.856Z,40.12
2017-07-30T10:28:59.753Z,40.37
2017-07-30T10:31:31.972Z,40.08
2017-07-30T10:34:06.403Z,39.73
2017-07-30T10:36:38.281Z,40.39
2017-07-30T10:39:10.088Z,40.58
2017-07-30T10:41:41.881Z,39.97
2017-07-30T10:44:20.136Z,39.64
2017-07-30T10:46:52.250Z,39.66
2017-07-30T10:49:23.801Z,39.13
2017-07-30T10:51:55.823Z,39.05
2017-07-30T10:54:27.726Z,39.31
2017-07-30T10:56:59.202Z,38.60
2017-07-30T10:59:31.183Z,37.70
2017-07-30T11:02:04.256Z,37.59
2017-07-30T11:04:48.822Z,37.56
2017-07-30T11:07:20.375Z,37.69
2017-07-30T11:09:53.011Z,37.46
2017-07-30T11:12:24.706Z,36.50
2017-07-30T11:14:57.357Z,36.18
2017-07-30T11:17:28.832Z,36.56
2017-07-30T11:20:00.436Z,35.86
2017-07-30T11:22:32.405Z,36.48
2017-07-30T11:25:04.126Z,36.57
2017-07-30T11:27:35.805Z,36.62
2017-07-30T11:30:08.073Z,35.88
2017-07-30T11:32:39.572Z,36.46
2017-07-30T11:35:12.227Z,35.51
2017-07-30T11:37:48.567Z,35.95
2017-07-30T11:40:25.302Z,35.48
2017-07-30T11:42:57.555Z,34.59
2017-07-30T11:45:29.555Z,35.50
2017-07-30T11:50:40.060Z,35.45
2017-07-30T11:53:13.232Z,34.24
2017-07-30T11:55:45.392Z,33.55
2017-07-30T11:58:19.665Z,32.93
2017-07-30T12:00:54.364Z,32.32
2017-07-30T12:03:29.753Z,32.00
2017-07-30T12:06:09.262Z,32.65
2017-07-30T12:08:44.368Z,34.43
2017-07-30T12:11:19.706Z,34.64
2017-07-30T12:16:45.840Z,34.92
2017-07-30T12:19:19.365Z,34.16
2017-07-30T12:21:52.526Z,34.31
2017-07-30T12:24:27.075Z,34.61
2017-07-30T12:26:58.979Z,34.74
2017-07-30T12:29:31.435Z,34.63
2017-07-30T12:32:05.778Z,34.72
2017-07-30T12:34:41.009Z,35.22
2017-07-30T12:37:17.237Z,35.01
2017-07-30T12:39:51.337Z,36.01
2017-07-30T12:42:24.766Z,34.61
2017-07-30T12:44:58.353Z,33.73
2017-07-30T12:47:34.078Z,34.06
2017-07-30T12:50:08.236Z,33.31
2017-07-30T12:52:39.626Z,34.29
2017-07-30T12:55:11.472Z,35.80
2017-07-30T12:57:42.787Z,37.17
2017-07-30T13:00:17.082Z,37.63
2017-07-30T13:02:48.399Z,38.07
2017-07-30T13:05:20.002Z,37.74
2017-07-30T13:07:57.968Z,39.97
2017-07-30T13:10:29.311Z,41.62
2017-07-30T13:13:08.829Z,43.00
2017-07-30T13:15:41.179Z,44.08
2017-07-30T13:18:14.933Z,44.99
2017-07-30T13:20:47.863Z,45.24
2017-07-30T13:23:19.321Z,45.73
2017-07-30T13:25:51.603Z,46.11
2017-07-30T13:28:23.576Z,46.46
2017-07-30T13:30:55.084Z,47.16
2017-07-30T13:33:27.079Z,47.73
2017-07-30T13:35:59.017Z,47.93
2017-07-30T13:38:30.339Z,48.12
2017-07-30T13:41:01.865Z,48.48
2017-07-30T13:43:33.243Z,48.21
2017-07-30T13:46:05.965Z,48.13
2017-07-30T13:48:37.327Z,47.49
2017-07-30T13:51:08.772Z,47.56
2017-07-30T13:53:40.348Z,47.32
2017-07-30T13:56:12.243Z,47.56
2017-07-30T13:58:43.771Z,47.61
2017-07-30T14:01:15.149Z,47.56
2017-07-30T14:03:46.689Z,47.39
2017-07-30T14:06:18.507Z,47.33
2017-07-30T14:08:50.645Z,47.26
2017-07-30T14:11:22.287Z,47.25
2017-07-30T14:13:53.713Z,46.96
2017-07-30T14:16:25.525Z,46.22
2017-07-30T14:18:56.972Z,46.35
2017-07-30T14:21:30.259Z,46.52
2017-07-30T14:24:03.341Z,46.52
2017-07-30T14:26:34.742Z,45.47
2017-07-30T14:29:06.948Z,44.76
2017-07-30T14:31:39.082Z,44.42
2017-07-30T14:34:12.756Z,43.87
2017-07-30T14:36:44.147Z,43.08
2017-07-30T14:39:15.945Z,43.55
2017-07-30T14:41:47.970Z,42.94
2017-07-30T14:44:20.123Z,42.60
2017-07-30T14:46:51.631Z,42.08
2017-07-30T14:49:24.697Z,41.34
2017-07-30T14:51:57.196Z,40.69
2017-07-30T14:54:29.304Z,38.49
2017-07-30T14:59:48.858Z,37.52
2017-07-30T15:02:21.470Z,36.31
2017-07-30T15:04:52.847Z,33.36
2017-07-30T15:07:24.297Z,30.42
2017-07-30T15:09:56.227Z,29.35
2017-07-30T15:12:27.575Z,31.75
2017-07-30T15:14:58.995Z,33.74
2017-07-30T15:17:30.713Z,35.90
2017-07-30T15:20:03.885Z,39.09
2017-07-30T15:22:35.313Z,40.40
2017-07-30T15:25:09.352Z,41.60
2017-07-30T15:27:40.965Z,40.82
2017-07-30T15:30:13.815Z,39.29
2017-07-30T15:32:47.261Z,35.86
2017-07-30T15:35:21.589Z,33.19
2017-07-30T15:37:53.341Z,34.25
2017-07-30T15:40:25.255Z,34.11
2017-07-30T15:42:56.833Z,33.46
2017-07-30T15:45:32.022Z,34.25
2017-07-30T15:51:06.836Z,37.30
2017-07-30T15:53:38.747Z,39.35
2017-07-30T15:56:11.091Z,40.58
2017-07-30T15:58:42.674Z,42.71
2017-07-30T16:01:15.533Z,43.97
2017-07-30T16:03:46.937Z,44.47
2017-07-30T16:06:18.479Z,44.85
2017-07-30T16:08:50.359Z,45.30
2017-07-30T16:11:21.866Z,45.94
2017-07-30T16:13:53.245Z,46.14
2017-07-30T16:16:24.794Z,45.93
2017-07-30T16:19:00.539Z,45.45
2017-07-30T16:21:35.194Z,45.58
2017-07-30T16:24:10.073Z,45.26
2017-07-30T16:26:44.153Z,45.11
2017-07-30T16:29:20.730Z,45.09
2017-07-30T16:31:55.869Z,44.84
2017-07-30T16:34:28.996Z,44.83
2017-07-30T16:37:16.856Z,45.56
2017-07-30T16:39:57.754Z,45.58
2017-07-30T16:42:42.379Z,46.61
2017-07-30T16:45:27.619Z,46.64
2017-07-30T16:48:10.548Z,47.16
2017-07-30T16:50:45.529Z,47.56
2017-07-30T16:53:16.975Z,47.83
2017-07-30T16:55:48.819Z,47.97
2017-07-30T16:58:20.206Z,47.03
2017-07-30T17:00:51.584Z,45.43
2017-07-30T17:03:23.490Z,45.88
2017-07-30T17:05:55.108Z,45.98
2017-07-30T17:08:26.808Z,45.29
2017-07-30T17:10:59.160Z,45.44
2017-07-30T17:13:30.575Z,45.28
2017-07-30T17:16:03.939Z,46.27
2017-07-30T17:18:35.454Z,47.09
2017-07-30T17:21:06.958Z,47.89
2017-07-30T17:23:38.911Z,48.30
2017-07-30T17:26:10.862Z,49.35
2017-07-30T17:28:42.234Z,49.68
2017-07-30T17:31:13.921Z,49.93
2017-07-30T17:33:45.440Z,50.36
2017-07-30T17:36:17.021Z,50.36
2017-07-30T17:38:49.005Z,50.24
2017-07-30T17:41:20.503Z,50.16
2017-07-30T17:43:52.768Z,50.41
2017-07-30T17:46:24.685Z,50.65
2017-07-30T17:48:55.998Z,50.49
2017-07-30T17:51:27.690Z,50.26
2017-07-30T17:53:59.140Z,50.64
2017-07-30T17:56:31.661Z,50.83
2017-07-30T17:59:09.934Z,50.38
2017-07-30T18:01:41.381Z,49.13
2017-07-30T18:04:13.474Z,49.11
2017-07-30T18:06:46.038Z,48.85
2017-07-30T18:09:18.829Z,48.56
2017-07-30T18:11:51.449Z,48.20
2017-07-30T18:14:22.858Z,47.89
2017-07-30T18:16:54.680Z,47.82
2017-07-30T18:19:26.159Z,47.69
2017-07-30T18:21:57.660Z,47.93
2017-07-30T18:24:29.541Z,47.55
2017-07-30T18:27:00.882Z,47.42
2017-07-30T18:29:32.401Z,47.56
2017-07-30T18:32:04.893Z,47.98
2017-07-30T18:37:33.222Z,48.32
2017-07-30T18:40:07.570Z,48.06
2017-07-30T18:42:39.484Z,48.29
2017-07-30T18:45:11.135Z,48.42
2017-07-30T18:47:42.575Z,48.38
2017-07-30T18:50:15.116Z,48.20
2017-07-30T18:52:47.572Z,48.28
2017-07-30T18:55:19.859Z,48.16
2017-07-30T18:57:55.102Z,48.23
2017-07-30T19:03:22.668Z,48.46
2017-07-30T19:05:56.380Z,48.33
2017-07-30T19:08:28.242Z,48.60
2017-07-30T19:10:59.737Z,48.83
2017-07-30T19:13:31.341Z,49.22
2017-07-30T19:16:03.376Z,49.51
2017-07-30T19:18:34.850Z,49.47
2017-07-30T19:21:06.729Z,49.87
2017-07-30T19:23:38.388Z,50.01
2017-07-30T19:26:10.230Z,50.15
2017-07-30T19:28:41.657Z,50.22
2017-07-30T19:31:13.255Z,50.21
2017-07-30T19:33:44.929Z,50.31
2017-07-30T19:36:16.467Z,50.41
2017-07-30T19:38:48.006Z,50.66
2017-07-30T19:41:19.700Z,50.65
2017-07-30T19:43:51.114Z,50.71
2017-07-30T19:48:44.507Z,50.84
2017-07-30T19:51:16.748Z,50.77
2017-07-30T19:53:55.119Z,50.93
2017-07-30T19:56:28.192Z,51.06
2017-07-30T19:59:01.281Z,51.23
2017-07-30T20:01:33.064Z,51.27
2017-07-30T20:04:26.433Z,51.23
2017-07-30T20:06:58.087Z,51.53
2017-07-30T20:09:36.386Z,51.53
2017-07-30T20:12:11.781Z,51.61
2017-07-30T20:14:43.616Z,51.85
2017-07-30T20:17:15.222Z,52.08
2017-07-30T20:19:46.840Z,52.14
2017-07-30T20:22:18.337Z,52.35
2017-07-30T20:24:49.708Z,52.58
2017-07-30T20:27:21.568Z,52.79
2017-07-30T20:29:53.552Z,52.99
2017-07-30T20:32:25.144Z,53.59
2017-07-30T20:34:56.981Z,53.62
2017-07-30T20:37:29.457Z,53.83
2017-07-30T20:40:02.595Z,53.73
2017-07-30T20:45:05.505Z,54.11
2017-07-30T20:47:37.237Z,54.17
2017-07-30T20:50:09.068Z,54.46
2017-07-30T20:52:40.735Z,54.41
2017-07-30T20:55:12.634Z,54.30
2017-07-30T20:57:44.042Z,54.38
2017-07-30T21:00:16.018Z,54.38
2017-07-30T21:02:47.326Z,54.77
2017-07-30T21:05:18.615Z,55.25
2017-07-30T21:07:50.054Z,55.32
2017-07-30T21:10:22.503Z,55.48
2017-07-30T21:12:56.673Z,55.59
2017-07-30T21:15:30.288Z,55.53
2017-07-30T21:18:05.933Z,55.58
2017-07-30T21:20:40.766Z,55.54
2017-07-30T21:23:14.253Z,55.43
2017-07-30T21:25:45.755Z,55.53
2017-07-30T21:28:17.109Z,55.71
2017-07-30T21:30:49.052Z,55.47
2017-07-30T21:33:24.188Z,55.53
2017-07-30T21:35:58.141Z,55.36
2017-07-30T21:38:30.970Z,55.33
2017-07-30T21:41:06.328Z,55.17
2017-07-30T21:43:40.267Z,55.02
2017-07-30T21:46:13.127Z,55.02
2017-07-30T21:48:48.136Z,55.14
2017-07-30T21:51:21.337Z,55.13
2017-07-30T21:53:53.793Z,55.11
2017-07-30T21:56:26.997Z,55.25
2017-07-30T21:59:01.456Z,55.26
2017-07-30T22:01:32.977Z,55.41
2017-07-30T22:04:05.440Z,55.42
2017-07-30T22:06:36.787Z,55.51
2017-07-30T22:09:08.164Z,55.62
2017-07-30T22:11:40.083Z,55.60
2017-07-30T22:14:11.575Z,55.79
2017-07-30T22:16:44.226Z,55.83
2017-07-30T22:19:16.505Z,55.87
2017-07-30T22:21:49.148Z,55.90
2017-07-30T22:24:22.745Z,55.98
2017-07-30T22:26:55.288Z,55.84
2017-07-30T22:29:26.737Z,55.92
2017-07-30T22:31:58.722Z,56.10
2017-07-30T22:34:31.436Z,56.22
2017-07-30T22:37:04.028Z,56.50
2017-07-30T22:39:36.193Z,56.76
2017-07-30T22:42:11.855Z,56.77
2017-07-30T22:44:44.223Z,57.03
2017-07-30T22:47:15.705Z,57.11
2017-07-30T22:49:47.231Z,57.00
2017-07-30T22:52:20.900Z,57.22
2017-07-30T22:54:53.188Z,57.59
2017-07-30T22:57:25.599Z,57.88
2017-07-30T22:59:57.816Z,58.19
2017-07-30T23:02:30.315Z,58.21
2017-07-30T23:05:02.110Z,58.32
2017-07-30T23:07:33.998Z,58.76
2017-07-30T23:10:13.097Z,58.80
2017-07-30T23:12:44.783Z,59.06
2017-07-30T23:15:16.643Z,59.33
2017-07-30T23:17:50.005Z,59.22
2017-07-30T23:20:23.031Z,59.67
2017-07-30T23:22:55.483Z,59.69
2017-07-30T23:25:27.087Z,59.85
2017-07-30T23:27:58.881Z,59.81
2017-07-30T23:30:30.259Z,60.10
2017-07-30T23:33:01.794Z,59.96
2017-07-30T23:35:33.492Z,60.05
2017-07-30T23:38:07.852Z,60.15
2017-07-30T23:40:39.509Z,60.11
2017-07-30T23:43:10.937Z,60.19
2017-07-30T23:45:42.381Z,60.34
2017-07-30T23:48:18.445Z,60.55
2017-07-30T23:50:49.958Z,60.97
2017-07-30T23:53:21.956Z,61.06
2017-07-30T23:55:53.420Z,61.17
2017-07-30T23:58:24.750Z,61.46
